Flight Track Log - Related Links

Times and Time Zones

All times are in EST time to prevent confusion due to time zone crossing. See the AAY829 flight status page for this flight to view local times or setup timezone preferences in your user account.


Time Position Orientation Groundspeed Altitude Reporting Facility
EST Latitude Longitude Course Direction KTS MPH feet Rate Location/Type
Thu 04:29:41 PM 34.9422 -82.1461 141° Southeast 245 282 4,300  Level Atlanta Center
Thu 04:30:41 PM 34.8850 -82.0892 141° Southeast 238 274 7,200 2,950 Climbing Atlanta Center
Thu 04:31:41 PM 34.8133 -82.0453 153° Southeast 254 292 10,200 2,300 Climbing Atlanta Center
Thu 04:32:41 PM 34.7331 -81.9967 154° Southeast 286 329 11,800 1,650 Climbing Atlanta Center
Thu 04:33:41 PM 34.6350 -81.9964 180° South 311 358 13,500 2,250 Climbing Atlanta Center
Thu 04:34:41 PM 34.5353 -82.0139 188° South 341 392 16,300 2,250 Climbing Atlanta Center
Thu 04:35:41 PM 34.4311 -82.0342 189° South 363 418 18,000 1,700 Climbing Atlanta Center
Thu 04:36:41 PM 34.3250 -82.0517 188° South 381 438 19,700 1,767 Climbing Atlanta Center
Thu 04:38:41 PM 34.1106 -82.0767 186° South 389 448 23,300 1,600 Climbing Atlanta Center
Thu 04:39:41 PM 34.0022 -82.0919 187° South 389 448 24,500 1,450 Climbing Atlanta Center
Thu 04:40:41 PM 33.8958 -82.1092 188° South 389 448 26,200 1,300 Climbing Atlanta Center
Thu 04:41:41 PM 33.7897 -82.1217 186° South 389 448 27,100 950 Climbing Atlanta Center
Thu 04:42:41 PM 33.6772 -82.1367 186° South 395 455 28,100 1,200 Climbing Atlanta Center
Thu 04:43:41 PM 33.5689 -82.1514 186° South 406 467 29,500 1,300 Climbing Atlanta Center
Thu 04:44:41 PM 33.4606 -82.1639 185° South 406 467 30,700 1,100 Climbing Atlanta Center
Thu 04:45:41 PM 33.3564 -82.1811 188° South 400 460 31,700 900 Climbing Atlanta Center
Thu 04:46:41 PM 33.2522 -82.1956 187° South 388 447 32,500 700 Climbing Atlanta Center
Thu 04:47:41 PM 33.1481 -82.2103 187° South 383 441 33,100 600 Climbing Atlanta Center
Thu 04:48:41 PM 33.0439 -82.2225 186° South 383 441 33,700 310 Climbing Atlanta Center
Thu 04:50:35 PM 32.8350 -82.2497 186° South 383 441 34,000 103 Climbing Jacksonville Center
Thu 04:51:35 PM 32.7308 -82.2653 187° South 389 448 34,000  Level Jacksonville Center
Thu 04:52:35 PM 32.6264 -82.2808 187° South 384 442 34,000  Level Jacksonville Center
Thu 04:53:35 PM 32.5222 -82.2914 185° South 384 442 34,000  Level Jacksonville Center
Thu 04:54:35 PM 32.4386 -82.3042 187° South 384 442 34,000  Level Jacksonville Center
Thu 04:55:35 PM 32.3239 -82.3222 188° South 379 436 34,000  Level Jacksonville Center
Thu 04:56:35 PM 32.2092 -82.3328 184° South 379 436 34,000  Level Jacksonville Center
Thu 04:57:35 PM 32.1028 -82.3456 186° South 385 443 34,000  Level Jacksonville Center
Thu 04:58:35 PM 31.9983 -82.3611 187° South 390 449 34,000  Level Jacksonville Center
Thu 04:59:35 PM 31.8878 -82.3739 186° South 390 449 34,000  Level Jacksonville Center
Thu 05:00:35 PM 31.7792 -82.3842 185° South 391 450 34,000  Level Jacksonville Center
Thu 05:01:35 PM 31.6686 -82.3825 179° South 391 450 34,000  Level Jacksonville Center
Thu 05:02:35 PM 31.5578 -82.3756 177° South 396 456 34,000  Level Jacksonville Center
Thu 05:03:35 PM 31.4453 -82.3764 180° South 404 465 34,000  Level Jacksonville Center
Thu 05:04:35 PM 31.3428 -82.3817 183° South 404 465 34,000  Level Jacksonville Center
Thu 05:05:35 PM 31.2322 -82.3800 179° South 404 465 34,000  Level Jacksonville Center
Thu 05:06:35 PM 31.1194 -82.3806 180° South 404 465 34,000  Level Jacksonville Center
Thu 05:07:35 PM 31.0089 -82.3764 178° South 404 465 34,000  Level Jacksonville Center
Thu 05:08:35 PM 30.8981 -82.3769 180° South 404 465 34,000  Level Jacksonville Center
Thu 05:09:35 PM 30.7853 -82.3750 179° South 404 465 34,000  Level Jacksonville Center
Thu 05:10:35 PM 30.6725 -82.3756 180° South 404 465 34,000 -50 Level Jacksonville Center
Thu 05:11:35 PM 30.5578 -82.3714 178° South 404 465 33,900  Descending Jacksonville Center
Thu 05:12:35 PM 30.4450 -82.3697 179° South 404 465 34,000 50 Climbing Jacksonville Center
Thu 05:13:35 PM 30.3303 -82.3703 180° South 404 465 34,000  Level Jacksonville Center
Thu 05:14:35 PM 30.2175 -82.3686 179° South 404 465 34,000  Level Jacksonville Center
Thu 05:15:35 PM 30.1047 -82.3667 179° South 404 465 34,000  Level Jacksonville Center
Thu 05:16:35 PM 29.9919 -82.3625 178° South 404 465 34,000 -550 Level Jacksonville Center
Thu 05:17:35 PM 29.8769 -82.3608 179° South 404 465 32,900 -1,650 Descending Jacksonville Center
Thu 05:18:35 PM 29.7622 -82.3589 179° South 404 465 30,700 -2,250 Descending Jacksonville Center
Thu 05:19:35 PM 29.6536 -82.3597 180° South 404 465 28,400 -2,350 Descending Jacksonville Center
Thu 05:20:35 PM 29.5367 -82.3556 178° South 404 465 26,000 -2,300 Descending Jacksonville Center
Thu 05:21:35 PM 29.4156 -82.3394 173° South 420 483 23,800 -2,250 Descending Jacksonville Center
Thu 05:22:35 PM 29.2861 -82.3258 175° South 425 489 21,500 -2,050 Descending Jacksonville Center
Thu 05:23:35 PM 29.1669 -82.3075 172° South 431 496 19,700 -1,500 Descending Jacksonville Center
Thu 05:24:35 PM 29.0583 -82.2964 175° South 417 480 18,500 -1,250 Descending Jacksonville Center
Thu 05:25:35 PM 28.9583 -82.2875 176° South 388 447 17,200 -1,600 Descending Jacksonville Center
Thu 05:26:35 PM 28.8706 -82.2761 174° South 351 404 15,300 -1,406 Descending Jacksonville Center
Thu 05:28:30 PM 28.6833 -82.2500 173° South 350 403 13,100 -750 Descending Tampa TRACON
Thu 05:29:31 PM 28.6000 -82.2500 180° South 337 388 13,100 -347 Level Tampa TRACON
Thu 05:30:31 PM 28.5167 -82.2833 199° South 326 375 12,400 -1,448 Descending Tampa TRACON
Thu 05:32:25 PM 28.4500 -82.4333 243° Southwest 260 299 8,900 -1,967 Descending Tampa TRACON
Thu 05:33:31 PM 28.4333 -82.5167 257° West 254 292 6,500 -1,714 Descending Tampa TRACON
Thu 05:34:31 PM 28.4333 -82.6000 270° West 256 295 5,300 -1,550 Descending Tampa TRACON
Thu 05:35:31 PM 28.3667 -82.6500 213° Southwest 240 276 3,400 -1,100 Descending Tampa TRACON
Thu 05:36:31 PM 28.3167 -82.6667 196° South 201 231 3,100 -150 Descending Tampa TRACON
Thu 05:37:31 PM 28.2667 -82.6667 180° South 160 184 3,100 -263 Level Tampa TRACON
Thu 05:38:25 PM 28.2333 -82.7167 233° Southwest 196 226 2,600 -200 Descending Tampa TRACON
Thu 05:39:31 PM 28.1833 -82.7333 196° South 178 205 2,700 52 Climbing Tampa TRACON
Thu 05:40:20 PM 28.1500 -82.7333 180° South 190 219 2,700  Level Tampa TRACON
Thu 05:41:19 PM 28.1000 -82.7167 164° South 177 204 2,700 -144 Level Tampa TRACON
Thu 05:42:25 PM 28.0500 -82.7167 180° South 167 192 2,400 -591 Descending Tampa TRACON
Thu 05:43:31 PM 28.0000 -82.7000 164° South 153 176 1,400 -850 Descending Tampa TRACON
Thu 05:44:32 PM 27.9500 -82.7000 180° South 165 190 600 -787 Descending Tampa TRACON
Thu 05:46:00 PM 27.9100 -82.6875 165° South  Level Estimated
Thu 05:53:00 PM 27.9100 -82.6875 260° West  Level Estimated
Thu 05:54:00 PM 27.9100 -82.6875 260° West  Level Estimated

Login

Don't have an account? Register now (free) for customized features, flight alerts, and more!